Time;durP1;ratioP1;P1;durP2;ratioP2;P2;SDS_P1;SDS_P2;PMS_P1;PMS_P2;Temp;Humidity;BMP_temperature;BMP_pressure;BME280_temperature;BME280_humidity;BME280_pressure;Samples;Min_cycle;Max_cycle;Signal;HPM_P1;HPM_P2
2022/10/11 00:04:43;;;;;;;23.98;13.02;;;;;;;;;;10285932;28;20031;-74
2022/10/11 00:09:43;;;;;;;24.57;11.47;;;;;;;;;;10285866;28;20401;-78
2022/10/11 00:14:43;;;;;;;25.33;13.35;;;;;;;;;;10284277;28;20394;-78
2022/10/11 00:19:44;;;;;;;22.27;12.02;;;;;;;;;;10286686;28;20428;-76
2022/10/11 00:24:44;;;;;;;27.63;13.40;;;;;;;;;;10284747;28;20445;-76
2022/10/11 00:29:45;;;;;;;25.50;12.93;;;;;;;;;;10285130;28;20019;-75
2022/10/11 00:34:45;;;;;;;25.50;14.85;;;;;;;;;;10284764;28;20023;-74
2022/10/11 00:39:45;;;;;;;26.10;14.90;;;;;;;;;;10285493;28;20019;-74
2022/10/11 00:44:46;;;;;;;25.50;15.97;;;;;;;;;;10284595;28;20015;-75
2022/10/11 00:49:58;;;;;;;24.25;13.77;;;;;;;;;;10283135;28;20032;-74
2022/10/11 00:55:04;;;;;;;23.30;15.20;;;;;;;;;;10285970;28;20090;-79
2022/10/11 01:00:06;;;;;;;26.35;13.75;;;;;;;;;;10283846;28;20035;-74
2022/10/11 01:05:08;;;;;;;30.42;15.63;;;;;;;;;;10283950;28;20397;-77
2022/10/11 01:10:09;;;;;;;27.40;15.90;;;;;;;;;;10284047;28;20015;-78
2022/10/11 01:15:19;;;;;;;25.88;13.77;;;;;;;;;;10282002;28;20022;-73
2022/10/11 01:20:38;;;;;;;29.45;14.70;;;;;;;;;;10282805;28;20029;-76
2022/10/11 01:25:56;;;;;;;29.05;16.75;;;;;;;;;;10284344;28;20034;-79
2022/10/11 01:31:00;;;;;;;37.65;18.23;;;;;;;;;;10281597;28;20030;-74
2022/10/11 01:36:09;;;;;;;29.77;17.67;;;;;;;;;;10284515;28;20050;-78
2022/10/11 01:41:15;;;;;;;30.98;17.38;;;;;;;;;;10288258;28;20030;-77
2022/10/11 01:46:18;;;;;;;38.33;17.48;;;;;;;;;;10282235;28;20046;-73
2022/10/11 01:51:20;;;;;;;43.55;19.75;;;;;;;;;;10280189;28;20022;-73
2022/10/11 01:56:39;;;;;;;32.78;17.85;;;;;;;;;;10265926;28;20046;-73
2022/10/11 02:01:43;;;;;;;36.05;19.17;;;;;;;;;;10280320;28;20034;-76
2022/10/11 02:06:58;;;;;;;34.17;17.88;;;;;;;;;;10280577;28;20559;-73
2022/10/11 02:12:01;;;;;;;38.03;19.15;;;;;;;;;;10296050;28;20383;-79
2022/10/11 02:17:06;;;;;;;35.13;19.90;;;;;;;;;;10279602;28;20058;-74
2022/10/11 02:22:16;;;;;;;34.03;19.38;;;;;;;;;;10283453;28;20409;-75
2022/10/11 02:27:19;;;;;;;41.95;18.58;;;;;;;;;;10296069;28;20023;-73
2022/10/11 02:32:20;;;;;;;36.42;17.98;;;;;;;;;;10282421;28;20019;-75
2022/10/11 02:37:27;;;;;;;34.90;18.08;;;;;;;;;;10279713;28;20054;-81
2022/10/11 02:42:31;;;;;;;37.83;19.08;;;;;;;;;;10280359;28;20109;-75
2022/10/11 02:47:32;;;;;;;35.22;16.90;;;;;;;;;;10278792;28;20460;-76
2022/10/11 02:52:32;;;;;;;35.17;17.23;;;;;;;;;;10281382;28;20023;-76
2022/10/11 02:57:32;;;;;;;33.53;17.55;;;;;;;;;;10289623;28;20050;-75
2022/10/11 03:02:32;;;;;;;36.90;18.98;;;;;;;;;;10288690;28;20015;-74
2022/10/11 03:07:33;;;;;;;41.60;17.92;;;;;;;;;;10288074;28;20022;-74
2022/10/11 03:12:33;;;;;;;41.00;18.73;;;;;;;;;;10288118;28;20118;-75
2022/10/11 03:17:33;;;;;;;61.83;20.15;;;;;;;;;;10286886;28;20077;-74
2022/10/11 03:22:33;;;;;;;38.53;18.05;;;;;;;;;;10286483;28;20030;-75
2022/10/11 03:27:34;;;;;;;39.80;20.80;;;;;;;;;;10286772;28;20019;-74
2022/10/11 03:32:34;;;;;;;35.47;18.45;;;;;;;;;;10285094;28;20027;-75
2022/10/11 03:37:34;;;;;;;39.10;20.42;;;;;;;;;;10286526;28;20018;-76
2022/10/11 03:42:35;;;;;;;38.00;18.65;;;;;;;;;;10286361;28;20014;-74
2022/10/11 03:47:36;;;;;;;35.75;17.27;;;;;;;;;;10286491;28;20026;-80
2022/10/11 03:52:36;;;;;;;38.63;16.90;;;;;;;;;;10282948;28;20030;-75
2022/10/11 03:57:37;;;;;;;36.28;17.23;;;;;;;;;;10283971;28;20019;-76
2022/10/11 04:02:37;;;;;;;34.43;17.20;;;;;;;;;;10285061;28;20015;-74
2022/10/11 04:07:37;;;;;;;37.65;17.85;;;;;;;;;;10281663;28;20043;-75
2022/10/11 04:12:38;;;;;;;34.90;15.07;;;;;;;;;;10283087;28;20096;-76
2022/10/11 04:17:39;;;;;;;34.40;16.10;;;;;;;;;;10285110;28;20026;-76
2022/10/11 04:22:39;;;;;;;40.65;17.45;;;;;;;;;;10285607;28;20092;-75
2022/10/11 04:27:39;;;;;;;31.88;16.25;;;;;;;;;;10285070;28;20104;-77
2022/10/11 04:32:40;;;;;;;34.37;16.97;;;;;;;;;;10283327;28;20026;-76
2022/10/11 04:37:40;;;;;;;37.75;17.33;;;;;;;;;;10280932;28;20819;-75
2022/10/11 04:42:40;;;;;;;41.88;17.20;;;;;;;;;;10283903;28;20446;-75
2022/10/11 04:47:40;;;;;;;35.33;16.83;;;;;;;;;;10282383;28;20019;-76
2022/10/11 04:52:41;;;;;;;35.95;16.83;;;;;;;;;;10280165;28;20515;-76
2022/10/11 04:57:41;;;;;;;39.47;17.08;;;;;;;;;;10280207;28;20022;-76
2022/10/11 05:02:42;;;;;;;36.63;16.52;;;;;;;;;;10278576;28;20030;-77
2022/10/11 05:07:43;;;;;;;35.72;16.33;;;;;;;;;;10279995;28;20022;-76
2022/10/11 05:12:43;;;;;;;31.27;14.73;;;;;;;;;;10278335;28;20019;-76
2022/10/11 05:17:43;;;;;;;33.55;15.27;;;;;;;;;;10281644;28;20026;-77
2022/10/11 05:22:43;;;;;;;34.90;15.53;;;;;;;;;;10281992;28;20498;-75
2022/10/11 05:27:44;;;;;;;34.42;13.90;;;;;;;;;;10281385;28;20397;-76
2022/10/11 05:32:44;;;;;;;27.30;13.38;;;;;;;;;;10281708;28;20015;-75
2022/10/11 05:37:44;;;;;;;29.00;12.87;;;;;;;;;;10281791;28;20029;-75
2022/10/11 05:42:45;;;;;;;26.25;12.55;;;;;;;;;;10281165;28;20014;-76
2022/10/11 05:47:45;;;;;;;26.83;12.00;;;;;;;;;;10282777;28;20025;-75
2022/10/11 05:52:45;;;;;;;26.67;12.68;;;;;;;;;;10275994;28;20513;-79
2022/10/11 05:57:46;;;;;;;36.38;13.27;;;;;;;;;;10283338;28;20030;-76
2022/10/11 06:02:46;;;;;;;26.15;13.70;;;;;;;;;;10281663;28;20499;-77
2022/10/11 06:07:46;;;;;;;30.13;12.80;;;;;;;;;;10282843;28;20030;-73
2022/10/11 06:12:47;;;;;;;45.38;12.77;;;;;;;;;;10285732;28;20122;-78
2022/10/11 06:17:47;;;;;;;32.47;13.83;;;;;;;;;;10295250;28;20019;-75
2022/10/11 06:22:47;;;;;;;37.33;15.90;;;;;;;;;;10287155;28;20057;-78
2022/10/11 06:27:48;;;;;;;48.63;18.35;;;;;;;;;;10262634;28;20026;-79
2022/10/11 06:32:48;;;;;;;39.25;16.80;;;;;;;;;;10280849;28;20117;-77
2022/10/11 06:37:48;;;;;;;50.03;19.15;;;;;;;;;;10280093;28;20050;-80
2022/10/11 06:42:49;;;;;;;44.42;17.83;;;;;;;;;;10278766;28;20018;-76
2022/10/11 06:47:49;;;;;;;47.17;17.17;;;;;;;;;;10281962;28;20450;-79
2022/10/11 06:52:49;;;;;;;39.88;16.48;;;;;;;;;;10280353;28;20149;-81
2022/10/11 06:57:49;;;;;;;42.63;17.17;;;;;;;;;;10279968;28;20023;-79
2022/10/11 07:02:50;;;;;;;32.17;15.95;;;;;;;;;;10280755;28;20022;-77
2022/10/11 07:07:50;;;;;;;32.75;15.50;;;;;;;;;;10280549;28;20019;-76
2022/10/11 07:12:50;;;;;;;34.47;16.05;;;;;;;;;;10280082;28;20027;-76
2022/10/11 07:17:50;;;;;;;43.47;15.75;;;;;;;;;;10279606;28;20493;-77
2022/10/11 07:22:51;;;;;;;31.80;16.38;;;;;;;;;;10278555;28;20070;-75
2022/10/11 07:27:51;;;;;;;38.47;15.68;;;;;;;;;;10279213;28;20019;-76
2022/10/11 07:32:51;;;;;;;37.58;15.38;;;;;;;;;;10277132;28;20025;-75
2022/10/11 07:37:51;;;;;;;27.13;12.95;;;;;;;;;;10280103;28;20424;-80
2022/10/11 07:42:52;;;;;;;27.23;13.18;;;;;;;;;;10286340;28;20109;-75
2022/10/11 07:47:53;;;;;;;32.15;12.68;;;;;;;;;;10286493;28;20081;-74
2022/10/11 07:52:54;;;;;;;23.90;12.32;;;;;;;;;;10285403;28;20029;-80
2022/10/11 07:57:54;;;;;;;22.67;12.68;;;;;;;;;;10270328;28;20023;-79
2022/10/11 08:02:54;;;;;;;27.88;14.48;;;;;;;;;;10285518;28;20378;-77
2022/10/11 08:07:55;;;;;;;29.70;12.98;;;;;;;;;;10288134;28;20101;-79
2022/10/11 08:12:55;;;;;;;26.63;13.47;;;;;;;;;;10287328;28;20026;-77
2022/10/11 08:17:55;;;;;;;26.92;12.13;;;;;;;;;;10291851;28;20026;-76
2022/10/11 08:22:55;;;;;;;22.05;12.25;;;;;;;;;;10284712;28;20034;-79
2022/10/11 08:27:56;;;;;;;34.42;12.70;;;;;;;;;;10286088;28;20054;-75
2022/10/11 08:32:56;;;;;;;26.75;12.00;;;;;;;;;;10284861;28;20019;-76
2022/10/11 08:37:56;;;;;;;31.38;12.63;;;;;;;;;;10284185;28;20015;-74
2022/10/11 08:42:59;;;;;;;32.72;14.15;;;;;;;;;;10283689;28;20019;-80
2022/10/11 08:48:20;;;;;;;21.63;9.50;;;;;;;;;;10282323;28;20367;-74
2022/10/11 08:53:35;;;;;;;23.75;12.90;;;;;;;;;;10282273;28;20043;-75
2022/10/11 08:58:44;;;;;;;23.48;12.07;;;;;;;;;;10282261;28;20485;-77
2022/10/11 09:03:44;;;;;;;;;;;;;;;;;;10268352;28;20489;-76
2022/10/11 09:08:47;;;;;;;22.85;11.88;;;;;;;;;;10284456;28;19916;-80
2022/10/11 09:14:14;;;;;;;26.33;13.70;;;;;;;;;;10282510;28;20054;-80
2022/10/11 09:19:21;;;;;;;23.83;11.65;;;;;;;;;;10281696;28;20038;-76
2022/10/11 09:24:33;;;;;;;25.95;13.48;;;;;;;;;;10281218;28;20030;-78
2022/10/11 09:29:47;;;;;;;27.58;13.73;;;;;;;;;;10282881;28;20100;-77
2022/10/11 09:34:54;;;;;;;27.92;12.95;;;;;;;;;;10282430;28;20027;-79
2022/10/11 09:40:03;;;;;;;25.08;12.65;;;;;;;;;;10280514;28;20035;-79
2022/10/11 09:45:16;;;;;;;25.50;11.88;;;;;;;;;;10281464;28;20037;-76
2022/10/11 09:50:22;;;;;;;19.23;10.82;;;;;;;;;;10280508;28;20085;-76
2022/10/11 09:55:33;;;;;;;19.52;10.40;;;;;;;;;;10281462;28;20053;-76
2022/10/11 10:00:34;;;;;;;18.80;11.82;;;;;;;;;;10296797;28;20114;-79
2022/10/11 10:05:36;;;;;;;24.93;11.53;;;;;;;;;;10278959;28;20485;-76
2022/10/11 10:10:38;;;;;;;26.77;11.32;;;;;;;;;;10280045;28;20267;-76
2022/10/11 10:15:43;;;;;;;32.08;13.10;;;;;;;;;;10281745;28;20023;-76
2022/10/11 10:20:49;;;;;;;27.95;12.32;;;;;;;;;;10280956;28;20035;-76
2022/10/11 10:25:49;;;;;;;21.40;11.63;;;;;;;;;;10278579;28;20047;-76
2022/10/11 10:30:53;;;;;;;25.27;10.52;;;;;;;;;;10281654;28;20105;-75
2022/10/11 10:36:05;;;;;;;22.15;10.35;;;;;;;;;;10278694;28;20026;-75
2022/10/11 10:41:10;;;;;;;19.70;9.73;;;;;;;;;;10278166;28;20030;-77
2022/10/11 10:46:17;;;;;;;22.73;11.48;;;;;;;;;;10278866;28;20037;-76
2022/10/11 10:51:23;;;;;;;21.45;10.55;;;;;;;;;;10279173;28;20115;-75
2022/10/11 10:56:31;;;;;;;16.00;9.82;;;;;;;;;;10277690;28;20337;-76
2022/10/11 11:01:33;;;;;;;15.80;8.75;;;;;;;;;;10280542;28;20109;-80
2022/10/11 11:06:45;;;;;;;15.52;9.20;;;;;;;;;;10279673;28;20363;-75
2022/10/11 11:11:55;;;;;;;14.60;8.80;;;;;;;;;;10278587;28;20033;-81
2022/10/11 11:17:11;;;;;;;16.50;9.68;;;;;;;;;;10285363;28;20050;-75
2022/10/11 11:22:22;;;;;;;17.45;10.02;;;;;;;;;;10298966;28;20023;-83
2022/10/11 11:27:35;;;;;;;16.25;8.65;;;;;;;;;;10287051;28;20027;-80
2022/10/11 11:32:53;;;;;;;21.77;10.55;;;;;;;;;;10285936;28;20046;-75
2022/10/11 11:37:57;;;;;;;16.85;8.70;;;;;;;;;;10287702;28;20018;-80
2022/10/11 11:43:00;;;;;;;20.20;10.82;;;;;;;;;;10268752;28;20019;-76
2022/10/11 11:48:00;;;;;;;20.88;10.73;;;;;;;;;;10285994;28;20030;-76
2022/10/11 11:53:06;;;;;;;20.17;10.75;;;;;;;;;;10286054;28;20047;-75
2022/10/11 11:58:25;;;;;;;21.17;9.63;;;;;;;;;;10284378;28;20029;-77
2022/10/11 12:03:32;;;;;;;26.85;11.73;;;;;;;;;;10284080;28;20114;-75
2022/10/11 12:08:33;;;;;;;19.05;9.80;;;;;;;;;;10285613;28;20035;-77
2022/10/11 12:13:35;;;;;;;29.65;13.00;;;;;;;;;;10279036;28;20036;-77
2022/10/11 12:18:48;;;;;;;20.98;11.23;;;;;;;;;;10282109;28;20074;-75
2022/10/11 12:23:51;;;;;;;22.10;12.57;;;;;;;;;;10280329;28;20031;-77
2022/10/11 12:28:57;;;;;;;22.45;11.60;;;;;;;;;;10284815;28;20050;-78
2022/10/11 12:34:00;;;;;;;28.23;11.55;;;;;;;;;;10281411;28;20481;-74
2022/10/11 12:39:33;;;;;;;28.08;11.57;;;;;;;;;;10280580;28;20468;-76
2022/10/11 12:44:33;;;;;;;18.67;10.57;;;;;;;;;;10278651;28;20049;-81
2022/10/11 12:49:40;;;;;;;19.75;10.85;;;;;;;;;;10281132;28;20037;-71
2022/10/11 12:54:59;;;;;;;21.70;10.77;;;;;;;;;;10280126;28;20058;-78
2022/10/11 13:00:14;;;;;;;23.80;10.68;;;;;;;;;;10282776;28;20042;-76
2022/10/11 13:05:16;;;;;;;18.83;11.18;;;;;;;;;;10284948;28;20034;-80
2022/10/11 13:10:21;;;;;;;18.90;10.07;;;;;;;;;;10280128;28;20023;-74
2022/10/11 13:15:23;;;;;;;13.70;7.88;;;;;;;;;;10293199;28;20479;-78
2022/10/11 13:20:27;;;;;;;16.75;8.68;;;;;;;;;;10281424;28;20101;-80
2022/10/11 13:25:29;;;;;;;20.55;9.88;;;;;;;;;;10279705;28;20496;-75
2022/10/11 13:30:31;;;;;;;19.75;10.63;;;;;;;;;;10294489;28;20042;-80
2022/10/11 13:35:32;;;;;;;24.85;12.52;;;;;;;;;;10279605;28;20034;-75
2022/10/11 13:40:34;;;;;;;25.85;15.07;;;;;;;;;;10279538;28;20024;-79
2022/10/11 13:45:35;;;;;;;23.88;13.52;;;;;;;;;;10282144;28;20030;-75
2022/10/11 13:50:38;;;;;;;31.30;15.02;;;;;;;;;;10276372;28;20420;-75
2022/10/11 13:55:41;;;;;;;35.25;16.33;;;;;;;;;;10275592;28;20118;-74
2022/10/11 14:00:51;;;;;;;29.38;13.25;;;;;;;;;;10283007;28;20125;-77
2022/10/11 14:05:58;;;;;;;32.53;15.65;;;;;;;;;;10278297;28;20031;-74
2022/10/11 14:10:58;;;;;;;32.40;15.38;;;;;;;;;;10275398;28;21629;-76
2022/10/11 14:16:01;;;;;;;27.98;13.77;;;;;;;;;;10277860;28;20045;-76
2022/10/11 14:21:19;;;;;;;23.88;13.00;;;;;;;;;;10278925;28;20106;-76
2022/10/11 14:26:20;;;;;;;25.30;12.10;;;;;;;;;;10285793;28;20026;-76
2022/10/11 14:31:20;;;;;;;24.23;11.77;;;;;;;;;;10278620;28;20034;-76
2022/10/11 14:36:21;;;;;;;24.95;13.07;;;;;;;;;;10293907;28;20095;-75
2022/10/11 14:41:22;;;;;;;23.90;12.80;;;;;;;;;;10288166;28;20033;-77
2022/10/11 14:46:24;;;;;;;30.33;13.50;;;;;;;;;;10273659;28;20387;-76
2022/10/11 14:51:27;;;;;;;24.92;13.18;;;;;;;;;;10275256;28;20497;-80
2022/10/11 14:56:28;;;;;;;31.38;13.00;;;;;;;;;;10278527;28;20449;-76
2022/10/11 15:01:28;;;;;;;27.98;13.90;;;;;;;;;;10282698;28;20122;-79
2022/10/11 15:06:29;;;;;;;29.15;12.85;;;;;;;;;;10288592;28;20209;-75
2022/10/11 15:11:30;;;;;;;27.60;14.02;;;;;;;;;;10303944;28;20134;-75
2022/10/11 15:16:30;;;;;;;27.25;14.65;;;;;;;;;;10301135;28;20054;-75
2022/10/11 15:21:31;;;;;;;30.65;14.75;;;;;;;;;;10282643;28;20026;-77
2022/10/11 15:26:32;;;;;;;27.70;13.93;;;;;;;;;;10275571;28;20524;-81
2022/10/11 15:31:33;;;;;;;35.92;13.55;;;;;;;;;;10279575;28;20517;-76
2022/10/11 15:36:34;;;;;;;29.40;14.93;;;;;;;;;;10279388;28;20134;-81
2022/10/11 15:41:35;;;;;;;29.30;14.40;;;;;;;;;;10277456;28;20031;-79
2022/10/11 15:46:36;;;;;;;32.38;15.40;;;;;;;;;;10277586;28;20434;-76
2022/10/11 15:51:37;;;;;;;29.13;12.43;;;;;;;;;;10274092;28;20022;-75
2022/10/11 15:56:37;;;;;;;20.40;11.55;;;;;;;;;;10263310;28;20105;-73
2022/10/11 16:01:37;;;;;;;23.70;11.32;;;;;;;;;;10275147;28;20027;-75
2022/10/11 16:06:39;;;;;;;21.02;11.55;;;;;;;;;;10278504;28;20035;-75
2022/10/11 16:11:40;;;;;;;26.30;11.98;;;;;;;;;;10284312;28;20035;-74
2022/10/11 16:16:40;;;;;;;22.08;11.77;;;;;;;;;;10276504;28;20401;-75
2022/10/11 16:21:41;;;;;;;24.60;11.77;;;;;;;;;;10275691;28;20488;-74
2022/10/11 16:26:41;;;;;;;22.50;10.77;;;;;;;;;;10281937;28;20022;-76
2022/10/11 16:31:41;;;;;;;23.98;11.48;;;;;;;;;;10280602;28;20461;-74
2022/10/11 16:36:43;;;;;;;16.10;10.65;;;;;;;;;;10281530;28;20037;-76
2022/10/11 16:41:44;;;;;;;21.77;10.65;;;;;;;;;;10276059;28;20018;-77
2022/10/11 16:46:47;;;;;;;21.27;10.65;;;;;;;;;;10282877;28;20026;-79
2022/10/11 16:51:47;;;;;;;23.88;11.95;;;;;;;;;;10279597;28;20019;-78
2022/10/11 16:56:48;;;;;;;24.40;11.27;;;;;;;;;;10275818;28;20039;-75
2022/10/11 17:01:49;;;;;;;28.77;12.80;;;;;;;;;;10281046;28;20030;-79
2022/10/11 17:06:50;;;;;;;24.02;12.07;;;;;;;;;;10280943;28;20549;-78
2022/10/11 17:11:51;;;;;;;29.05;12.25;;;;;;;;;;10276591;28;20395;-74
2022/10/11 17:16:51;;;;;;;24.17;12.65;;;;;;;;;;10280265;28;20019;-74
2022/10/11 17:21:51;;;;;;;25.35;12.68;;;;;;;;;;10276721;28;20085;-73
2022/10/11 17:26:52;;;;;;;19.73;11.52;;;;;;;;;;10279687;28;20030;-74
2022/10/11 17:31:54;;;;;;;18.42;9.88;;;;;;;;;;10278051;28;20015;-74
2022/10/11 17:36:54;;;;;;;20.27;10.75;;;;;;;;;;10278457;28;20023;-73
2022/10/11 17:41:54;;;;;;;25.00;11.55;;;;;;;;;;10277198;28;20018;-74
2022/10/11 17:46:54;;;;;;;24.03;13.13;;;;;;;;;;10278741;28;20065;-78
2022/10/11 17:51:55;;;;;;;27.75;13.13;;;;;;;;;;10279723;28;20031;-78
2022/10/11 17:56:56;;;;;;;23.13;13.73;;;;;;;;;;10252274;28;20171;-74
2022/10/11 18:01:56;;;;;;;25.80;11.80;;;;;;;;;;10255402;28;20027;-76
2022/10/11 18:06:56;;;;;;;23.38;11.50;;;;;;;;;;10256990;28;20015;-75
2022/10/11 18:11:57;;;;;;;25.35;13.27;;;;;;;;;;10277704;28;20070;-76
2022/10/11 18:17:00;;;;;;;26.20;12.38;;;;;;;;;;10271165;28;20409;-79
2022/10/11 18:22:00;;;;;;;21.67;11.70;;;;;;;;;;10257073;28;20058;-76
2022/10/11 18:27:00;;;;;;;26.45;11.95;;;;;;;;;;10272161;28;20106;-73
2022/10/11 18:32:01;;;;;;;22.92;11.63;;;;;;;;;;10272979;28;20018;-74
2022/10/11 18:37:01;;;;;;;25.83;11.77;;;;;;;;;;10286382;28;20110;-74
2022/10/11 18:42:04;;;;;;;23.90;12.48;;;;;;;;;;10272617;28;20023;-75
2022/10/11 18:47:04;;;;;;;21.20;12.05;;;;;;;;;;10270925;28;20022;-74
2022/10/11 18:52:06;;;;;;;20.33;11.50;;;;;;;;;;10273639;28;20026;-73
2022/10/11 18:57:08;;;;;;;19.85;11.52;;;;;;;;;;10269765;28;20150;-77
2022/10/11 19:02:10;;;;;;;23.35;11.77;;;;;;;;;;10273633;28;20429;-74
2022/10/11 19:07:10;;;;;;;20.23;11.27;;;;;;;;;;10293540;23;20594;-75
2022/10/11 19:12:10;;;;;;;22.13;12.32;;;;;;;;;;10267652;28;20115;-76
2022/10/11 19:17:14;;;;;;;27.67;12.70;;;;;;;;;;10270989;28;20022;-74
2022/10/11 19:22:14;;;;;;;22.50;12.07;;;;;;;;;;10268715;28;20491;-74
2022/10/11 19:27:15;;;;;;;28.88;13.10;;;;;;;;;;10271638;28;20667;-75
2022/10/11 19:32:15;;;;;;;24.45;12.35;;;;;;;;;;10268081;28;20528;-73
2022/10/11 19:37:16;;;;;;;22.17;12.85;;;;;;;;;;10273425;28;20627;-77
2022/10/11 19:42:16;;;;;;;24.77;12.63;;;;;;;;;;10269979;28;20038;-75
2022/10/11 19:47:16;;;;;;;22.85;12.07;;;;;;;;;;10259407;28;20058;-80
2022/10/11 19:52:16;;;;;;;29.97;13.77;;;;;;;;;;10262287;28;20031;-76
2022/10/11 19:57:17;;;;;;;21.90;13.95;;;;;;;;;;10248883;28;20034;-76
2022/10/11 20:02:17;;;;;;;34.53;14.48;;;;;;;;;;10259106;28;20035;-74
2022/10/11 20:07:17;;;;;;;28.50;14.38;;;;;;;;;;10256671;28;20061;-74
2022/10/11 20:12:17;;;;;;;32.42;13.75;;;;;;;;;;10276060;28;20030;-75
2022/10/11 20:17:18;;;;;;;29.23;15.30;;;;;;;;;;10262393;28;20023;-74
2022/10/11 20:22:18;;;;;;;29.33;15.30;;;;;;;;;;10255584;28;20042;-80
2022/10/11 20:27:20;;;;;;;30.38;15.68;;;;;;;;;;10259110;28;20032;-79
2022/10/11 20:32:20;;;;;;;28.55;14.82;;;;;;;;;;10258962;28;20106;-78
2022/10/11 20:37:23;;;;;;;31.90;16.23;;;;;;;;;;10282256;28;20031;-79
2022/10/11 20:42:23;;;;;;;31.52;15.38;;;;;;;;;;10261959;28;20725;-80
2022/10/11 20:47:24;;;;;;;30.08;14.70;;;;;;;;;;10279806;28;20031;-80
2022/10/11 20:52:24;;;;;;;31.23;15.50;;;;;;;;;;10259653;28;20398;-75
2022/10/11 20:57:26;;;;;;;32.15;15.30;;;;;;;;;;10256152;28;20031;-78
2022/10/11 21:02:26;;;;;;;25.25;14.10;;;;;;;;;;10282214;28;20445;-74
2022/10/11 21:07:27;;;;;;;26.88;13.40;;;;;;;;;;10257344;28;20062;-77
2022/10/11 21:12:28;;;;;;;27.73;15.05;;;;;;;;;;10256457;28;20416;-74
2022/10/11 21:17:29;;;;;;;28.75;15.27;;;;;;;;;;10255838;28;20027;-75
2022/10/11 21:22:33;;;;;;;27.42;14.43;;;;;;;;;;10255452;28;20062;-76
2022/10/11 21:27:33;;;;;;;26.00;13.93;;;;;;;;;;10253702;28;20539;-74
2022/10/11 21:32:33;;;;;;;35.85;27.20;;;;;;;;;;10256545;28;20046;-78
2022/10/11 21:37:34;;;;;;;28.23;15.30;;;;;;;;;;10255999;28;20058;-79
2022/10/11 21:42:35;;;;;;;29.27;15.70;;;;;;;;;;10251630;28;20547;-79
2022/10/11 21:47:35;;;;;;;26.35;14.63;;;;;;;;;;10260432;28;20042;-78
2022/10/11 21:52:35;;;;;;;23.13;13.82;;;;;;;;;;10278854;28;20110;-73
2022/10/11 21:57:35;;;;;;;27.38;14.77;;;;;;;;;;10275982;28;20099;-75
2022/10/11 22:02:36;;;;;;;24.70;13.15;;;;;;;;;;10246488;28;20029;-76
2022/10/11 22:07:36;;;;;;;27.98;13.10;;;;;;;;;;10260226;28;20094;-74
2022/10/11 22:12:36;;;;;;;26.73;14.32;;;;;;;;;;10260281;28;20046;-79
2022/10/11 22:17:36;;;;;;;27.75;13.38;;;;;;;;;;10262754;28;20029;-73
2022/10/11 22:22:37;;;;;;;22.70;12.35;;;;;;;;;;10283352;28;20446;-76
2022/10/11 22:27:37;;;;;;;24.85;13.80;;;;;;;;;;10281632;28;20486;-74
2022/10/11 22:32:37;;;;;;;23.70;13.73;;;;;;;;;;10283910;28;20023;-77
2022/10/11 22:37:37;;;;;;;25.75;13.15;;;;;;;;;;10260422;28;20089;-79
2022/10/11 22:42:38;;;;;;;26.95;13.65;;;;;;;;;;10259096;28;20434;-75
2022/10/11 22:47:38;;;;;;;25.48;14.10;;;;;;;;;;10287861;28;20443;-81
2022/10/11 22:52:38;;;;;;;22.50;13.77;;;;;;;;;;10258923;28;20028;-74
2022/10/11 22:57:38;;;;;;;25.05;13.98;;;;;;;;;;10283204;28;20018;-78
2022/10/11 23:02:39;;;;;;;27.98;13.38;;;;;;;;;;10258275;28;20018;-74
2022/10/11 23:07:39;;;;;;;21.70;13.07;;;;;;;;;;10269820;28;20520;-75
2022/10/11 23:12:39;;;;;;;23.95;13.75;;;;;;;;;;10270420;28;20516;-75
2022/10/11 23:17:40;;;;;;;27.33;14.48;;;;;;;;;;10290534;28;20037;-74
2022/10/11 23:22:40;;;;;;;22.80;13.77;;;;;;;;;;10267651;28;20026;-76
2022/10/11 23:27:40;;;;;;;25.70;14.68;;;;;;;;;;10265422;28;20114;-75
2022/10/11 23:32:40;;;;;;;36.97;15.27;;;;;;;;;;10268781;28;20024;-75
2022/10/11 23:37:40;;;;;;;34.72;17.38;;;;;;;;;;10302280;28;20018;-74
2022/10/11 23:42:41;;;;;;;34.42;17.70;;;;;;;;;;10309871;28;20042;-75
2022/10/11 23:47:41;;;;;;;38.38;19.48;;;;;;;;;;10304313;28;20019;-75
2022/10/11 23:52:41;;;;;;;41.08;19.80;;;;;;;;;;10268995;28;20023;-75
2022/10/11 23:57:41;;;;;;;40.97;17.20;;;;;;;;;;10290143;28;20027;-79
